Amarillo, TX (79101)

4:35 PM CST en Enero 31, 2015 (GMT -0600)
Oliver-Eakle | Change Station
CLOSE
Current Station
Estación meteorológica personal
Location: Amarillo, TX
Altura: 3678 ft
Estaciones meteorológicas cercanas

Alt 3678 ft 35.19 °N, 101.84 °W | Updated 1 second ago

Nublado
Nublado
40.2 ° F
Sensación térmica 40 ° F
N
0.2
Viento Variable Viento desde SSO
Gusts 4.6 mph

Hoy
Alta -- | Baja -- ° F
--% Posibilidad de precipitaciones
Ayer
Alta -- | Baja -- ° F
Precip. -- pul
7:47 AM 6:14 PM
Gibosa creciente, 92% visible
Presión 29.86 pul
Visibilidad 10.0 Millas
Nubes Nublado 500 ft
Vientos helados 40 ° F
Punto de rocío 38 ° F
Humedad 93%
Precipitaciones 0.42 pul
Espesor de la nieve No disponible.
UV 1 de una escala de 12
Polen 1.70 de una escala de 12
Calidad del aire No disponible.
Flu Activity No disponible.
METAR KAMA 312153Z 19012KT 10SM OVC005 04/03 A2985 RMK AO2 SLP110 T00390033

More Conditions Fewer Conditions

Presión 29.86 pul
Visibilidad 10.0 Millas
Nubes Nublado 500 ft
Vientos helados 40 ° F
Punto de rocío 38 ° F
Humedad 93%
Precipitaciones 0.42 pul
Espesor de la nieve No disponible.
UV 1 de una escala de 12
Polen 1.70 de una escala de 12
Calidad del aire No disponible.
Flu Activity No disponible.
METAR KAMA 312153Z 19012KT 10SM OVC005 04/03 A2985 RMK AO2 SLP110 T00390033

More Conditions Fewer Conditions

10-Day Weather Forecast

Almanac

Astronomía

Jan. 31, 2015 Salida Puesta
Hora real
Crepúsculo civil
Crepúsculo náutico
Crepúsculo astronómico
Luna
Horas de luz
Horas de luz
Tomorrow will be .
, % of the Moon is Illuminated

Extremos de hoy

Máximos del estado Bajos del estado

Community

WunderPhotos

Upload Photos

1,792,226 ¡fotos cargadas!

WunderBlogs® & News

Nearby

Calidad del aire

  Calidad del aire Índice AQ Contaminante
Not available.

Grosos de nieve

Estación Profundido Altura

Actividad de terremotos

Ciudad Distance Mag. Tiempo y dato
Magnitud mínima muestra es 2,5.

Temperaturas de aguas costeras

Lugar Temperatura

Estaciones meteorológicas cercanas